Time;durP1;ratioP1;P1;durP2;ratioP2;P2;SDS_P1;SDS_P2;PMS_P1;PMS_P2;Temp;Humidity;BMP_temperature;BMP_pressure;BME280_temperature;BME280_humidity;BME280_pressure;Samples;Min_cycle;Max_cycle;Signal;HPM_P1;HPM_P2
2020/12/30 00:02:29;;;;;;;10.95;5.25;;;;;;;;;;5053978;28;20033;-88
2020/12/30 00:04:55;;;;;;;14.02;5.20;;;;;;;;;;5050376;28;20029;-89
2020/12/30 00:07:22;;;;;;;14.02;5.47;;;;;;;;;;5052341;28;20029;-88
2020/12/30 00:09:49;;;;;;;12.63;5.55;;;;;;;;;;5051812;28;20056;-89
2020/12/30 00:12:15;;;;;;;11.90;5.25;;;;;;;;;;5065223;28;20050;-89
2020/12/30 00:14:42;;;;;;;12.18;5.20;;;;;;;;;;5061397;28;20037;-89
2020/12/30 00:17:08;;;;;;;13.93;6.22;;;;;;;;;;5054037;28;20118;-89
2020/12/30 00:19:34;;;;;;;10.45;5.40;;;;;;;;;;5060285;28;20023;-89
2020/12/30 00:22:00;;;;;;;14.48;5.60;;;;;;;;;;5055235;28;20410;-88
2020/12/30 00:24:26;;;;;;;13.43;5.40;;;;;;;;;;5060809;28;20037;-89
2020/12/30 00:26:52;;;;;;;13.65;5.30;;;;;;;;;;5059760;28;20498;-88
2020/12/30 00:29:18;;;;;;;11.02;5.40;;;;;;;;;;5059438;28;20065;-89
2020/12/30 00:31:44;;;;;;;13.30;5.40;;;;;;;;;;5056775;28;20037;-90
2020/12/30 00:34:10;;;;;;;11.43;5.68;;;;;;;;;;5054797;28;20075;-88
2020/12/30 00:36:37;;;;;;;16.58;5.22;;;;;;;;;;5056561;28;20037;-87
2020/12/30 00:39:03;;;;;;;13.77;5.07;;;;;;;;;;5056518;28;20083;-90
2020/12/30 00:41:30;;;;;;;17.70;5.00;;;;;;;;;;5059736;28;20078;-89
2020/12/30 00:43:56;;;;;;;16.50;6.40;;;;;;;;;;5063297;28;20540;-89
2020/12/30 00:46:22;;;;;;;13.68;4.40;;;;;;;;;;5056848;28;20511;-89
2020/12/30 00:48:48;;;;;;;14.27;2.78;;;;;;;;;;5054698;28;20063;-89
2020/12/30 00:51:14;;;;;;;10.48;1.80;;;;;;;;;;5059072;28;20025;-89
2020/12/30 00:53:40;;;;;;;8.38;1.15;;;;;;;;;;5057593;28;20070;-89
2020/12/30 00:56:07;;;;;;;7.22;1.40;;;;;;;;;;5062331;28;20025;-88
2020/12/30 00:58:33;;;;;;;9.60;1.27;;;;;;;;;;5066618;28;20017;-88
2020/12/30 01:00:59;;;;;;;7.30;0.90;;;;;;;;;;5058650;28;20020;-87
2020/12/30 01:03:26;;;;;;;7.47;1.17;;;;;;;;;;5057863;28;20091;-87
2020/12/30 01:05:52;;;;;;;3.17;0.80;;;;;;;;;;5052747;28;20119;-87
2020/12/30 01:08:19;;;;;;;3.08;0.70;;;;;;;;;;5056546;28;20025;-87
2020/12/30 01:10:45;;;;;;;2.28;0.52;;;;;;;;;;5061002;28;20017;-87
2020/12/30 01:13:11;;;;;;;3.70;0.60;;;;;;;;;;5048677;28;20029;-86
2020/12/30 01:15:37;;;;;;;3.13;0.70;;;;;;;;;;5045268;28;20022;-87
2020/12/30 01:18:03;;;;;;;4.38;0.98;;;;;;;;;;5049228;28;20033;-86
2020/12/30 01:20:29;;;;;;;3.35;0.93;;;;;;;;;;5057089;28;20021;-86
2020/12/30 01:22:55;;;;;;;8.20;1.85;;;;;;;;;;5057329;28;20037;-86
2020/12/30 01:25:21;;;;;;;3.90;0.80;;;;;;;;;;5057070;28;20033;-86
2020/12/30 01:27:47;;;;;;;6.43;0.93;;;;;;;;;;5050152;28;20029;-86
2020/12/30 01:30:13;;;;;;;5.82;1.00;;;;;;;;;;5050107;28;20061;-85
2020/12/30 01:32:39;;;;;;;5.82;0.90;;;;;;;;;;5052357;28;20055;-86
2020/12/30 01:35:05;;;;;;;6.53;1.00;;;;;;;;;;5057638;28;20024;-86
2020/12/30 01:37:32;;;;;;;4.05;1.08;;;;;;;;;;5055472;28;20012;-85
2020/12/30 01:39:58;;;;;;;7.85;1.20;;;;;;;;;;5060677;28;20048;-84
2020/12/30 01:42:24;;;;;;;3.80;1.20;;;;;;;;;;5055487;28;20051;-85
2020/12/30 01:44:50;;;;;;;6.60;1.15;;;;;;;;;;5055695;28;20020;-84
2020/12/30 01:47:16;;;;;;;7.25;1.40;;;;;;;;;;5055140;28;20025;-84
2020/12/30 01:49:42;;;;;;;8.52;2.10;;;;;;;;;;5058905;28;20050;-84
2020/12/30 01:52:08;;;;;;;5.28;1.92;;;;;;;;;;5056117;28;20037;-85
2020/12/30 01:54:35;;;;;;;11.45;2.35;;;;;;;;;;5058918;28;20025;-84
2020/12/30 01:57:03;;;;;;;11.07;2.95;;;;;;;;;;5055711;28;20087;-84
2020/12/30 01:59:29;;;;;;;9.57;2.78;;;;;;;;;;5055701;28;20040;-85
2020/12/30 02:02:01;;;;;;;13.45;2.63;;;;;;;;;;5055359;28;20047;-85
2020/12/30 02:04:39;;;;;;;9.68;2.65;;;;;;;;;;5059609;28;20029;-84
2020/12/30 02:07:05;;;;;;;8.23;2.00;;;;;;;;;;5055644;28;20025;-84
2020/12/30 02:09:31;;;;;;;9.85;2.63;;;;;;;;;;5061021;28;20032;-84
2020/12/30 02:11:57;;;;;;;5.93;1.95;;;;;;;;;;5062127;28;20082;-85
2020/12/30 02:14:23;;;;;;;6.22;2.15;;;;;;;;;;5054081;28;20021;-86
2020/12/30 02:16:50;;;;;;;10.73;2.30;;;;;;;;;;5056318;28;20024;-88
2020/12/30 02:19:17;;;;;;;11.65;2.95;;;;;;;;;;5055743;28;20108;-87
2020/12/30 02:21:43;;;;;;;10.02;2.10;;;;;;;;;;5058491;28;20025;-87
2020/12/30 02:24:11;;;;;;;11.05;2.35;;;;;;;;;;5057055;28;20063;-86
2020/12/30 02:26:37;;;;;;;10.77;2.28;;;;;;;;;;5058396;28;20025;-86
2020/12/30 02:29:03;;;;;;;9.73;2.40;;;;;;;;;;5057548;28;20068;-86
2020/12/30 02:31:29;;;;;;;10.40;2.95;;;;;;;;;;5055519;28;20025;-86
2020/12/30 02:33:55;;;;;;;7.22;1.55;;;;;;;;;;5063728;28;20029;-88
2020/12/30 02:36:21;;;;;;;6.70;2.22;;;;;;;;;;5056732;28;20041;-88
2020/12/30 02:38:51;;;;;;;10.38;2.60;;;;;;;;;;5064319;28;20029;-89
2020/12/30 02:41:17;;;;;;;12.90;3.67;;;;;;;;;;5065778;28;20060;-88
2020/12/30 02:43:43;;;;;;;11.10;3.50;;;;;;;;;;5065520;28;20020;-88
2020/12/30 02:46:09;;;;;;;13.80;3.78;;;;;;;;;;5064125;28;20029;-88
2020/12/30 02:48:35;;;;;;;11.10;3.58;;;;;;;;;;5066204;28;20033;-87
2020/12/30 02:51:01;;;;;;;18.60;5.57;;;;;;;;;;5061640;28;20567;-88
2020/12/30 02:53:27;;;;;;;19.50;6.07;;;;;;;;;;5060653;28;20029;-87
2020/12/30 02:55:53;;;;;;;12.15;6.43;;;;;;;;;;5058027;28;20029;-87
2020/12/30 02:58:19;;;;;;;21.95;7.55;;;;;;;;;;5056301;28;20486;-88
2020/12/30 03:00:45;;;;;;;14.35;6.07;;;;;;;;;;5060479;28;20047;-87
2020/12/30 03:03:11;;;;;;;14.48;5.75;;;;;;;;;;5062783;28;20186;-86
2020/12/30 03:05:37;;;;;;;15.05;6.28;;;;;;;;;;5059983;28;20032;-86
2020/12/30 03:08:03;;;;;;;16.92;5.65;;;;;;;;;;5060432;28;20056;-86
2020/12/30 03:10:29;;;;;;;19.52;5.88;;;;;;;;;;5053286;28;20036;-86
2020/12/30 03:12:55;;;;;;;18.88;6.53;;;;;;;;;;5057170;28;20036;-86
2020/12/30 03:15:22;;;;;;;19.13;6.03;;;;;;;;;;5060766;28;20050;-85
2020/12/30 03:17:48;;;;;;;18.55;6.90;;;;;;;;;;5064981;28;20422;-86
2020/12/30 03:20:14;;;;;;;18.48;5.93;;;;;;;;;;5060643;28;20053;-85
2020/12/30 03:22:40;;;;;;;15.18;6.18;;;;;;;;;;5060314;28;20029;-85
2020/12/30 03:25:06;;;;;;;29.65;7.70;;;;;;;;;;5054798;28;20032;-85
2020/12/30 03:27:32;;;;;;;15.48;5.75;;;;;;;;;;5060422;28;20041;-85
2020/12/30 03:29:58;;;;;;;20.15;6.55;;;;;;;;;;5062322;28;20048;-86
2020/12/30 03:32:24;;;;;;;16.00;6.00;;;;;;;;;;5059274;28;20055;-86
2020/12/30 03:34:50;;;;;;;14.73;6.80;;;;;;;;;;5061775;28;20121;-86
2020/12/30 03:37:17;;;;;;;14.77;5.38;;;;;;;;;;5060895;28;20080;-86
2020/12/30 03:39:43;;;;;;;15.18;6.30;;;;;;;;;;5065297;28;20025;-86
2020/12/30 03:42:09;;;;;;;16.73;5.80;;;;;;;;;;5061023;28;20029;-85
2020/12/30 03:44:35;;;;;;;11.23;4.63;;;;;;;;;;5062427;28;20059;-86
2020/12/30 03:47:01;;;;;;;16.40;6.30;;;;;;;;;;5060635;28;20083;-85
2020/12/30 03:49:28;;;;;;;21.45;6.03;;;;;;;;;;5059716;28;20024;-85
2020/12/30 03:51:54;;;;;;;16.77;6.95;;;;;;;;;;5056884;28;20029;-85
2020/12/30 03:54:20;;;;;;;14.93;6.15;;;;;;;;;;5059767;28;20025;-84
2020/12/30 03:56:46;;;;;;;15.32;6.15;;;;;;;;;;5049982;28;21132;-85
2020/12/30 03:59:12;;;;;;;14.88;6.00;;;;;;;;;;5052345;28;20122;-85
2020/12/30 04:01:38;;;;;;;18.17;6.03;;;;;;;;;;5054344;28;20116;-85
2020/12/30 04:04:04;;;;;;;17.55;6.10;;;;;;;;;;5063117;28;20028;-85
2020/12/30 04:06:30;;;;;;;16.60;7.07;;;;;;;;;;5051435;28;20037;-85
2020/12/30 04:08:56;;;;;;;22.65;6.55;;;;;;;;;;5055533;28;20017;-85
2020/12/30 04:11:22;;;;;;;18.13;5.05;;;;;;;;;;5064907;28;20028;-86
2020/12/30 04:13:48;;;;;;;15.98;5.75;;;;;;;;;;5066367;28;20021;-85
2020/12/30 04:16:20;;;;;;;16.88;6.25;;;;;;;;;;5049829;28;20028;-85
2020/12/30 04:18:46;;;;;;;13.27;5.22;;;;;;;;;;5055933;28;20013;-85
2020/12/30 04:21:17;;;;;;;14.32;6.10;;;;;;;;;;5060849;28;20017;-85
2020/12/30 04:23:43;;;;;;;18.65;7.10;;;;;;;;;;5061693;28;20111;-86
2020/12/30 04:26:09;;;;;;;14.32;6.38;;;;;;;;;;5049500;28;20029;-86
2020/12/30 04:28:35;;;;;;;17.73;5.90;;;;;;;;;;5056268;28;20041;-86
2020/12/30 04:31:01;;;;;;;13.52;6.28;;;;;;;;;;5057067;28;20028;-86
2020/12/30 04:33:27;;;;;;;16.77;6.43;;;;;;;;;;5053609;28;20437;-85
2020/12/30 04:35:53;;;;;;;15.23;5.13;;;;;;;;;;5057102;28;20501;-85
2020/12/30 04:38:19;;;;;;;11.50;5.10;;;;;;;;;;5061998;28;20016;-83
2020/12/30 04:40:45;;;;;;;10.48;3.65;;;;;;;;;;5049971;28;20040;-84
2020/12/30 04:43:12;;;;;;;12.63;4.15;;;;;;;;;;5044375;28;20256;-84
2020/12/30 04:45:39;;;;;;;13.13;5.38;;;;;;;;;;5052538;28;20128;-83
2020/12/30 04:48:05;;;;;;;11.40;4.82;;;;;;;;;;5054137;28;20581;-84
2020/12/30 04:50:31;;;;;;;11.43;6.78;;;;;;;;;;5060061;28;20056;-84
2020/12/30 04:52:57;;;;;;;10.18;4.82;;;;;;;;;;5051510;28;20047;-84
2020/12/30 04:55:24;;;;;;;12.88;4.88;;;;;;;;;;5048886;28;20196;-84
2020/12/30 04:57:59;;;;;;;12.93;5.05;;;;;;;;;;5053111;28;20570;-84
2020/12/30 05:00:26;;;;;;;13.32;5.50;;;;;;;;;;5052756;28;20025;-84
2020/12/30 05:02:53;;;;;;;17.50;4.70;;;;;;;;;;5060096;28;20087;-84
2020/12/30 05:05:21;;;;;;;15.18;4.53;;;;;;;;;;5055891;28;20021;-84
2020/12/30 05:07:47;;;;;;;19.85;4.72;;;;;;;;;;5058574;28;20032;-84
2020/12/30 05:10:16;;;;;;;12.80;3.60;;;;;;;;;;5066615;28;20028;-85
2020/12/30 05:12:43;;;;;;;13.50;4.60;;;;;;;;;;5049115;28;20067;-84
2020/12/30 05:15:09;;;;;;;11.48;4.70;;;;;;;;;;5050668;28;20115;-86
2020/12/30 05:17:35;;;;;;;10.48;4.35;;;;;;;;;;5051860;28;20506;-85
2020/12/30 05:20:01;;;;;;;13.38;4.47;;;;;;;;;;5054499;28;20480;-85
2020/12/30 05:22:28;;;;;;;16.17;8.13;;;;;;;;;;5054366;28;20083;-84
2020/12/30 05:24:54;;;;;;;12.27;5.38;;;;;;;;;;5053111;28;20029;-85
2020/12/30 05:27:20;;;;;;;19.70;7.25;;;;;;;;;;5052024;28;20033;-85
2020/12/30 05:29:51;;;;;;;15.80;7.20;;;;;;;;;;5055959;28;20048;-85
2020/12/30 05:32:20;;;;;;;13.38;6.13;;;;;;;;;;5051991;28;20082;-85
2020/12/30 05:34:47;;;;;;;10.77;4.57;;;;;;;;;;5047936;28;20033;-86
2020/12/30 05:37:14;;;;;;;14.13;7.22;;;;;;;;;;5053826;28;20017;-86
2020/12/30 05:39:40;;;;;;;12.80;6.60;;;;;;;;;;5057423;28;20029;-86
2020/12/30 05:42:15;;;;;;;12.45;6.07;;;;;;;;;;5052219;28;20032;-86
2020/12/30 05:44:42;;;;;;;13.07;7.05;;;;;;;;;;5050522;28;20032;-86
2020/12/30 05:47:09;;;;;;;11.95;5.95;;;;;;;;;;5050361;28;20510;-86
2020/12/30 05:49:35;;;;;;;12.88;5.50;;;;;;;;;;5053414;28;20020;-86
2020/12/30 05:52:10;;;;;;;13.98;5.53;;;;;;;;;;5054654;28;20441;-86
2020/12/30 05:54:36;;;;;;;15.30;6.15;;;;;;;;;;5053026;28;20080;-84
2020/12/30 05:57:18;;;;;;;13.27;6.32;;;;;;;;;;5059171;28;20074;-86
2020/12/30 05:59:44;;;;;;;;;;;;;;;;;;5054475;28;20017;-86
2020/12/30 06:02:11;;;;;;;16.27;6.07;;;;;;;;;;5056160;28;19932;-86
2020/12/30 06:04:37;;;;;;;13.65;5.93;;;;;;;;;;5051821;28;20028;-86
2020/12/30 06:07:03;;;;;;;15.90;6.53;;;;;;;;;;5061706;28;20094;-86
2020/12/30 06:09:34;;;;;;;14.43;4.85;;;;;;;;;;5048843;28;20032;-86
2020/12/30 06:12:00;;;;;;;12.30;5.97;;;;;;;;;;5055371;28;20036;-86
2020/12/30 06:14:27;;;;;;;14.75;6.10;;;;;;;;;;5052174;28;20674;-86
2020/12/30 06:16:56;;;;;;;14.05;6.68;;;;;;;;;;5053329;28;20025;-86
2020/12/30 06:19:23;;;;;;;15.07;6.45;;;;;;;;;;5051531;28;20036;-84
2020/12/30 06:21:49;;;;;;;15.43;6.40;;;;;;;;;;5055350;28;20498;-84
2020/12/30 06:24:16;;;;;;;12.80;5.53;;;;;;;;;;5051033;28;20124;-85
2020/12/30 06:26:45;;;;;;;13.38;6.57;;;;;;;;;;5048544;28;20117;-85
2020/12/30 06:29:13;;;;;;;14.55;5.32;;;;;;;;;;5056492;28;20561;-84
2020/12/30 06:31:49;;;;;;;11.40;4.65;;;;;;;;;;5055035;28;20035;-85
2020/12/30 06:34:16;;;;;;;12.68;4.65;;;;;;;;;;5065753;28;20022;-84
2020/12/30 06:36:43;;;;;;;13.82;4.03;;;;;;;;;;5053830;28;20441;-85
2020/12/30 06:39:22;;;;;;;11.80;4.72;;;;;;;;;;5051843;28;20040;-85
2020/12/30 06:41:55;;;;;;;21.13;5.35;;;;;;;;;;5060642;28;20509;-85
2020/12/30 06:44:40;;;;;;;12.93;4.10;;;;;;;;;;5051571;28;20093;-86
2020/12/30 06:47:07;;;;;;;14.48;4.28;;;;;;;;;;5059454;28;20108;-86
2020/12/30 06:49:33;;;;;;;12.75;4.20;;;;;;;;;;5050720;28;20053;-86
2020/12/30 06:51:59;;;;;;;15.27;4.35;;;;;;;;;;5055010;28;20082;-86
2020/12/30 06:54:44;;;;;;;14.25;4.32;;;;;;;;;;5055318;28;20028;-86
2020/12/30 06:57:10;;;;;;;12.13;4.00;;;;;;;;;;5055291;28;20494;-86
2020/12/30 06:59:36;;;;;;;10.65;3.78;;;;;;;;;;5052616;28;20507;-86
2020/12/30 07:02:04;;;;;;;11.00;4.60;;;;;;;;;;5053884;28;20040;-85
2020/12/30 07:04:30;;;;;;;8.93;3.13;;;;;;;;;;5053229;28;20389;-85
2020/12/30 07:06:57;;;;;;;12.25;3.85;;;;;;;;;;5051109;28;20546;-85
2020/12/30 07:09:29;;;;;;;12.73;3.65;;;;;;;;;;5061983;28;20028;-85
2020/12/30 07:11:55;;;;;;;7.25;3.05;;;;;;;;;;5050840;28;20024;-86
2020/12/30 07:14:23;;;;;;;10.85;3.15;;;;;;;;;;5049935;28;20038;-84
2020/12/30 07:16:53;;;;;;;9.15;3.63;;;;;;;;;;5048682;28;20082;-86
2020/12/30 07:19:24;;;;;;;11.50;3.83;;;;;;;;;;5060314;28;20033;-86
2020/12/30 07:21:50;;;;;;;14.63;3.90;;;;;;;;;;5062150;28;20033;-86
2020/12/30 07:24:20;;;;;;;10.18;3.58;;;;;;;;;;5054246;28;20123;-86
2020/12/30 07:26:51;;;;;;;17.23;3.75;;;;;;;;;;5060425;28;20408;-85
2020/12/30 07:29:17;;;;;;;11.85;3.65;;;;;;;;;;5058415;28;20045;-86
2020/12/30 07:31:47;;;;;;;12.80;3.47;;;;;;;;;;5059262;28;20031;-87
2020/12/30 07:34:18;;;;;;;13.45;3.45;;;;;;;;;;5068875;28;20327;-86
2020/12/30 07:36:45;;;;;;;13.80;3.15;;;;;;;;;;5067320;28;20027;-86
2020/12/30 07:39:11;;;;;;;20.95;3.80;;;;;;;;;;5053400;28;20028;-85
2020/12/30 07:41:37;;;;;;;8.38;3.00;;;;;;;;;;5054548;28;20040;-86
2020/12/30 07:44:05;;;;;;;9.07;2.80;;;;;;;;;;5049399;28;20026;-86
2020/12/30 07:46:31;;;;;;;10.32;3.50;;;;;;;;;;5055892;28;20020;-86
2020/12/30 07:49:06;;;;;;;13.55;3.05;;;;;;;;;;5049420;28;20017;-87
2020/12/30 07:51:32;;;;;;;10.60;2.67;;;;;;;;;;5058310;28;20028;-87
2020/12/30 07:53:59;;;;;;;7.95;2.00;;;;;;;;;;5057927;28;20017;-86
2020/12/30 07:56:25;;;;;;;11.73;2.33;;;;;;;;;;5061136;28;20025;-86
2020/12/30 07:58:51;;;;;;;5.75;0.95;;;;;;;;;;5055066;28;20035;-85
2020/12/30 08:01:18;;;;;;;7.32;1.30;;;;;;;;;;5063460;28;20482;-85
2020/12/30 08:03:44;;;;;;;10.38;1.98;;;;;;;;;;5046193;28;20516;-86
2020/12/30 08:06:10;;;;;;;9.00;2.00;;;;;;;;;;5057507;28;20024;-85
2020/12/30 08:08:43;;;;;;;13.15;2.30;;;;;;;;;;5045839;28;20033;-86
2020/12/30 08:11:09;;;;;;;13.95;2.47;;;;;;;;;;5044082;28;20085;-86
2020/12/30 08:13:38;;;;;;;6.60;1.45;;;;;;;;;;5060736;28;20021;-86
2020/12/30 08:16:04;;;;;;;18.40;2.78;;;;;;;;;;5050077;28;20028;-86
2020/12/30 08:18:30;;;;;;;16.15;3.35;;;;;;;;;;5051953;28;20017;-86
2020/12/30 08:20:56;;;;;;;17.27;3.15;;;;;;;;;;5055194;28;20016;-85
2020/12/30 08:23:22;;;;;;;16.38;2.75;;;;;;;;;;5053430;28;20029;-86
2020/12/30 08:25:48;;;;;;;14.73;2.80;;;;;;;;;;5050423;28;20040;-88
2020/12/30 08:28:15;;;;;;;13.13;2.90;;;;;;;;;;5054561;28;20030;-88
2020/12/30 08:30:42;;;;;;;11.77;2.55;;;;;;;;;;5059078;28;20398;-89
2020/12/30 08:33:11;;;;;;;15.60;3.15;;;;;;;;;;5056659;28;20032;-85
2020/12/30 08:35:40;;;;;;;13.38;3.10;;;;;;;;;;5052541;28;20060;-86
2020/12/30 08:38:19;;;;;;;8.27;2.22;;;;;;;;;;5066665;28;20021;-86
2020/12/30 08:40:49;;;;;;;9.10;2.08;;;;;;;;;;5049648;28;20044;-87
2020/12/30 08:43:20;;;;;;;10.27;1.75;;;;;;;;;;5056858;28;20098;-86
2020/12/30 08:45:56;;;;;;;9.40;1.65;;;;;;;;;;5042923;28;20032;-87
2020/12/30 08:48:22;;;;;;;12.10;2.20;;;;;;;;;;5058973;28;20060;-90
2020/12/30 08:50:52;;;;;;;8.90;2.08;;;;;;;;;;5053803;28;20028;-92
2020/12/30 08:53:34;;;;;;;11.35;1.92;;;;;;;;;;5053347;28;20095;-91
2020/12/30 08:56:00;;;;;;;12.85;1.77;;;;;;;;;;5065884;28;20024;-92
2020/12/30 08:58:26;;;;;;;9.25;1.67;;;;;;;;;;5055654;28;20029;-91
2020/12/30 09:00:52;;;;;;;7.22;1.80;;;;;;;;;;5053250;28;20021;-91
2020/12/30 09:03:18;;;;;;;10.80;1.52;;;;;;;;;;5048971;28;20037;-92
2020/12/30 09:05:55;;;;;;;14.15;2.88;;;;;;;;;;5050562;28;20079;-92
2020/12/30 09:08:23;;;;;;;12.73;2.15;;;;;;;;;;5051376;28;20021;-92
2020/12/30 09:10:49;;;;;;;10.88;1.67;;;;;;;;;;5040570;28;20037;-92
2020/12/30 09:13:19;;;;;;;7.63;1.80;;;;;;;;;;5052316;28;20029;-92
2020/12/30 09:15:47;;;;;;;9.65;1.95;;;;;;;;;;5049626;28;20036;-92
2020/12/30 09:18:13;;;;;;;15.57;2.97;;;;;;;;;;5053533;28;20048;-94
2020/12/30 09:20:40;;;;;;;5.53;1.70;;;;;;;;;;5053058;28;20021;-92
2020/12/30 09:23:06;;;;;;;8.30;1.55;;;;;;;;;;5056941;28;20028;-91
2020/12/30 09:25:35;;;;;;;8.20;1.50;;;;;;;;;;5051442;28;20491;-92
2020/12/30 09:28:01;;;;;;;6.28;1.90;;;;;;;;;;5050569;28;20027;-92
2020/12/30 09:30:28;;;;;;;10.05;2.05;;;;;;;;;;5052182;28;20600;-92
2020/12/30 09:32:55;;;;;;;19.75;2.28;;;;;;;;;;5052235;28;20059;-92
2020/12/30 09:35:30;;;;;;;11.82;1.77;;;;;;;;;;5050337;28;20596;-93
2020/12/30 09:37:57;;;;;;;9.93;1.80;;;;;;;;;;5068198;28;20115;-94
2020/12/30 09:40:24;;;;;;;10.70;2.42;;;;;;;;;;5048353;28;20099;-93
2020/12/30 09:42:50;;;;;;;18.17;2.72;;;;;;;;;;5060377;28;20502;-87
2020/12/30 09:45:18;;;;;;;10.73;2.45;;;;;;;;;;5046458;28;20249;-87
2020/12/30 09:47:44;;;;;;;10.93;1.40;;;;;;;;;;5050703;28;20021;-87
2020/12/30 09:50:12;;;;;;;6.63;1.13;;;;;;;;;;5049082;28;20037;-87
2020/12/30 09:52:42;;;;;;;7.78;1.50;;;;;;;;;;5056778;28;20438;-87
2020/12/30 09:55:08;;;;;;;12.68;1.67;;;;;;;;;;5046628;28;20044;-86
2020/12/30 09:57:35;;;;;;;9.60;1.40;;;;;;;;;;5043446;28;20025;-87
2020/12/30 10:00:02;;;;;;;5.30;1.45;;;;;;;;;;5049968;28;20056;-87
2020/12/30 10:02:28;;;;;;;8.52;1.30;;;;;;;;;;5050786;28;20119;-88
2020/12/30 10:04:55;;;;;;;9.20;1.45;;;;;;;;;;5048424;28;20076;-87
2020/12/30 10:07:21;;;;;;;21.10;3.47;;;;;;;;;;5049661;28;20029;-87
2020/12/30 10:09:47;;;;;;;12.45;1.73;;;;;;;;;;5050762;28;20498;-87
2020/12/30 10:12:13;;;;;;;6.70;1.60;;;;;;;;;;5050986;28;20116;-88
2020/12/30 10:14:39;;;;;;;8.20;1.52;;;;;;;;;;5048411;28;20040;-88
2020/12/30 10:17:09;;;;;;;7.80;1.40;;;;;;;;;;5048151;28;20020;-85
2020/12/30 10:19:35;;;;;;;8.70;2.05;;;;;;;;;;5049436;28;20047;-87
2020/12/30 10:22:06;;;;;;;10.57;1.70;;;;;;;;;;5048815;28;20494;-87
2020/12/30 10:24:32;;;;;;;7.25;2.53;;;;;;;;;;5049806;28;20128;-87
2020/12/30 10:26:58;;;;;;;7.90;2.80;;;;;;;;;;5047283;28;20057;-88
2020/12/30 10:29:28;;;;;;;12.40;4.05;;;;;;;;;;5054051;28;20055;-88
2020/12/30 10:31:54;;;;;;;7.40;1.75;;;;;;;;;;5060733;28;20036;-88
2020/12/30 10:34:20;;;;;;;7.97;1.30;;;;;;;;;;5049739;28;20033;-88
2020/12/30 10:36:46;;;;;;;8.55;1.30;;;;;;;;;;5048148;28;20021;-87
2020/12/30 10:39:13;;;;;;;9.07;1.88;;;;;;;;;;5051962;28;20115;-87
2020/12/30 10:41:39;;;;;;;7.72;1.65;;;;;;;;;;5052707;28;20060;-88
2020/12/30 10:44:05;;;;;;;7.47;1.50;;;;;;;;;;5050878;28;20048;-88
2020/12/30 10:46:31;;;;;;;6.03;1.42;;;;;;;;;;5046501;28;20020;-87
2020/12/30 10:48:57;;;;;;;7.75;1.35;;;;;;;;;;5048187;28;20531;-87
2020/12/30 10:51:23;;;;;;;15.27;1.92;;;;;;;;;;5055415;28;20051;-87
2020/12/30 10:53:49;;;;;;;9.43;1.85;;;;;;;;;;5049971;28;20025;-87
2020/12/30 10:56:15;;;;;;;10.63;1.85;;;;;;;;;;5052551;28;20028;-87
2020/12/30 10:58:41;;;;;;;9.48;2.25;;;;;;;;;;5058751;28;20029;-88
2020/12/30 11:01:11;;;;;;;8.93;1.48;;;;;;;;;;5058150;28;20021;-87
2020/12/30 11:03:37;;;;;;;11.88;1.60;;;;;;;;;;5056300;28;20029;-88
2020/12/30 11:06:04;;;;;;;6.55;1.60;;;;;;;;;;5048507;28;20624;-88
2020/12/30 11:08:30;;;;;;;14.63;1.75;;;;;;;;;;5054676;28;20025;-87
2020/12/30 11:10:57;;;;;;;8.63;1.77;;;;;;;;;;5060383;28;20043;-88
2020/12/30 11:13:23;;;;;;;8.73;1.73;;;;;;;;;;5059171;28;20095;-88
2020/12/30 11:15:49;;;;;;;7.57;1.58;;;;;;;;;;5053570;28;20379;-86
2020/12/30 11:18:16;;;;;;;6.75;1.67;;;;;;;;;;5053318;28;20510;-94
2020/12/30 11:20:42;;;;;;;7.13;2.20;;;;;;;;;;5054782;28;20044;-94
2020/12/30 11:23:08;;;;;;;4.13;1.23;;;;;;;;;;5044985;28;20021;-91
2020/12/30 11:25:34;;;;;;;11.20;1.83;;;;;;;;;;5039335;28;20047;-92
2020/12/30 11:28:01;;;;;;;8.43;2.22;;;;;;;;;;5042878;28;20502;-93
2020/12/30 11:30:28;;;;;;;6.70;1.75;;;;;;;;;;5047255;28;20040;-91
2020/12/30 11:32:54;;;;;;;14.15;1.83;;;;;;;;;;5043755;28;20056;-94
2020/12/30 11:35:20;;;;;;;12.30;1.60;;;;;;;;;;5050567;28;20171;-94
2020/12/30 11:37:46;;;;;;;10.60;1.50;;;;;;;;;;5072725;28;20048;-93
2020/12/30 11:40:12;;;;;;;7.28;1.63;;;;;;;;;;5052950;28;20024;-94
2020/12/30 11:42:40;;;;;;;13.38;2.20;;;;;;;;;;5057412;28;20029;-93
2020/12/30 11:45:07;;;;;;;10.43;1.83;;;;;;;;;;5051123;28;20024;-94
2020/12/30 11:47:33;;;;;;;8.27;2.15;;;;;;;;;;5053207;28;20029;-94
2020/12/30 11:49:59;;;;;;;10.00;1.38;;;;;;;;;;5056894;28;20044;-94
2020/12/30 11:52:25;;;;;;;7.45;1.50;;;;;;;;;;5062647;28;20037;-95
2020/12/30 11:54:52;;;;;;;7.93;1.90;;;;;;;;;;5064054;28;20017;-92
2020/12/30 11:57:18;;;;;;;7.22;2.50;;;;;;;;;;5054735;28;20047;-88
2020/12/30 11:59:44;;;;;;;12.52;2.75;;;;;;;;;;5057371;28;20035;-92
2020/12/30 12:02:10;;;;;;;6.18;1.30;;;;;;;;;;5056566;28;20029;-94
2020/12/30 12:04:36;;;;;;;13.70;2.13;;;;;;;;;;5060487;28;20033;-91
2020/12/30 12:07:02;;;;;;;8.10;1.75;;;;;;;;;;5056615;28;20045;-92
2020/12/30 12:09:28;;;;;;;9.35;1.80;;;;;;;;;;5053628;28;20036;-93
2020/12/30 12:11:56;;;;;;;7.30;1.70;;;;;;;;;;5057813;28;20387;-92
2020/12/30 12:14:22;;;;;;;8.02;1.55;;;;;;;;;;5058253;28;20032;-92
2020/12/30 12:16:55;;;;;;;10.52;1.50;;;;;;;;;;5058859;28;20173;-93
2020/12/30 12:19:21;;;;;;;11.32;1.80;;;;;;;;;;5067203;28;20486;-94
2020/12/30 12:21:47;;;;;;;5.00;1.23;;;;;;;;;;5056363;28;20502;-93
2020/12/30 12:24:14;;;;;;;7.13;1.52;;;;;;;;;;5054135;28;20119;-95
2020/12/30 12:26:41;;;;;;;5.88;1.05;;;;;;;;;;5054294;28;20028;-94
2020/12/30 12:29:39;;;;;;;8.07;1.77;;;;;;;;;;5057723;28;20052;-92
2020/12/30 12:32:10;;;;;;;7.63;1.88;;;;;;;;;;5055885;28;20407;-94
2020/12/30 12:34:36;;;;;;;12.33;2.77;;;;;;;;;;5052948;28;20035;-94
2020/12/30 12:37:05;;;;;;;7.75;2.03;;;;;;;;;;5072365;28;20025;-93
2020/12/30 12:39:31;;;;;;;12.70;2.17;;;;;;;;;;5058724;28;20035;-93
2020/12/30 12:41:57;;;;;;;10.93;2.42;;;;;;;;;;5055888;28;20033;-92
2020/12/30 12:44:24;;;;;;;6.38;1.23;;;;;;;;;;5058396;28;20058;-95
2020/12/30 12:46:50;;;;;;;5.15;1.40;;;;;;;;;;5055609;28;20028;-94
2020/12/30 12:49:17;;;;;;;6.95;1.95;;;;;;;;;;5058013;28;20029;-92
2020/12/30 12:51:47;;;;;;;4.68;1.90;;;;;;;;;;5052827;28;20087;-94
2020/12/30 12:54:13;;;;;;;9.68;1.85;;;;;;;;;;5062618;28;20032;-91
2020/12/30 12:56:39;;;;;;;7.03;1.77;;;;;;;;;;5054275;28;20093;-92
2020/12/30 12:59:06;;;;;;;8.68;1.70;;;;;;;;;;5054460;28;20071;-90
2020/12/30 13:01:32;;;;;;;9.05;1.83;;;;;;;;;;5055059;28;20033;-90
2020/12/30 13:03:58;;;;;;;6.18;1.30;;;;;;;;;;5057509;28;20063;-92
2020/12/30 13:06:25;;;;;;;9.27;1.80;;;;;;;;;;5049749;28;20021;-92
2020/12/30 13:08:51;;;;;;;9.93;2.20;;;;;;;;;;5051146;28;20084;-91
2020/12/30 13:11:17;;;;;;;8.20;1.65;;;;;;;;;;5058461;28;20040;-91
2020/12/30 13:13:43;;;;;;;8.90;1.85;;;;;;;;;;5059380;28;20478;-93
2020/12/30 13:16:09;;;;;;;3.72;1.40;;;;;;;;;;5051449;28;20490;-92
2020/12/30 13:18:35;;;;;;;9.50;1.73;;;;;;;;;;5056005;28;20024;-93
2020/12/30 13:21:01;;;;;;;7.80;1.65;;;;;;;;;;5067775;28;20033;-94
2020/12/30 13:23:27;;;;;;;6.10;1.48;;;;;;;;;;5054451;28;20035;-95
2020/12/30 13:25:56;;;;;;;9.55;2.08;;;;;;;;;;5051608;28;20060;-94
2020/12/30 13:28:22;;;;;;;11.13;1.52;;;;;;;;;;5050334;28;20036;-93
2020/12/30 13:30:49;;;;;;;6.10;1.48;;;;;;;;;;5054576;28;20044;-94
2020/12/30 13:33:15;;;;;;;7.80;1.23;;;;;;;;;;5053946;28;20032;-95
2020/12/30 13:35:41;;;;;;;8.88;2.05;;;;;;;;;;5051831;28;20062;-95
2020/12/30 13:38:08;;;;;;;11.05;1.65;;;;;;;;;;5049999;28;20486;-95
2020/12/30 13:40:34;;;;;;;11.05;1.42;;;;;;;;;;5057752;28;20436;-94
2020/12/30 13:43:00;;;;;;;8.52;1.30;;;;;;;;;;5056938;28;20037;-94
2020/12/30 13:45:26;;;;;;;6.22;1.70;;;;;;;;;;5051483;28;20025;-93
2020/12/30 13:47:52;;;;;;;7.10;1.30;;;;;;;;;;5050541;28;20042;-94
2020/12/30 13:50:18;;;;;;;6.13;2.33;;;;;;;;;;5055561;28;20389;-95
2020/12/30 13:52:44;;;;;;;11.13;2.15;;;;;;;;;;5053093;28;20033;-94
2020/12/30 13:55:10;;;;;;;8.80;1.58;;;;;;;;;;5052629;28;20016;-95
2020/12/30 13:57:36;;;;;;;9.40;2.10;;;;;;;;;;5051564;28;20025;-95
2020/12/30 14:00:04;;;;;;;9.25;1.35;;;;;;;;;;5050595;28;20052;-94
2020/12/30 14:02:30;;;;;;;8.38;2.45;;;;;;;;;;5048888;28;20021;-95
2020/12/30 14:04:56;;;;;;;6.68;2.05;;;;;;;;;;5047888;28;20039;-95
2020/12/30 14:07:22;;;;;;;4.63;1.58;;;;;;;;;;5052679;28;20021;-95
2020/12/30 14:09:48;;;;;;;5.63;1.42;;;;;;;;;;5055050;28;20021;-95
2020/12/30 14:12:14;;;;;;;9.02;1.73;;;;;;;;;;5052411;28;20548;-95
2020/12/30 14:14:40;;;;;;;7.40;1.98;;;;;;;;;;5051475;28;20545;-94
2020/12/30 14:17:06;;;;;;;6.30;1.88;;;;;;;;;;5053501;28;20108;-95
2020/12/30 14:19:32;;;;;;;8.27;1.45;;;;;;;;;;5051449;28;20040;-94
2020/12/30 14:21:58;;;;;;;9.52;2.17;;;;;;;;;;5052925;28;20632;-94
2020/12/30 14:24:24;;;;;;;11.13;2.10;;;;;;;;;;5051552;28;20052;-92
2020/12/30 14:26:50;;;;;;;6.22;1.90;;;;;;;;;;5050715;28;20025;-94
2020/12/30 14:29:16;;;;;;;7.93;1.77;;;;;;;;;;5050821;28;20053;-94
2020/12/30 14:31:42;;;;;;;8.40;1.80;;;;;;;;;;5056157;28;20027;-94
2020/12/30 14:34:08;;;;;;;8.30;1.42;;;;;;;;;;5054584;28;20029;-94
2020/12/30 14:36:34;;;;;;;7.30;1.33;;;;;;;;;;5054033;28;20596;-89